Westhill, United Kingdom
Current Conditions -  °F | °C
As of 9:50 AM on Tuesday 21 Oct 2014 (Local Time) from EGPD Reporting Station
Few Clouds Few Clouds  
Wind Chill: 39°   Ceiling: Unl
Heat Index: 46°   Visibility: 6mi
Dew Point: 41°   Wind: 21mph
Humidity: 81%   Direction: 300°WNW
Pressure: 29.09"   Gusts: 32mph
Location:  57.16°N, 2.29°W
Report Text: EGPD 210850Z 30018G28KT 9999 FEW024 08/05 Q0985 TEMPO SHRA
Loading
Personal Weather Stations






























Interactive Weather Map
Tropical Storm Tracking
New forecast layout! Learn more

10-Day Weather Forecast

Advertisements
Track Severe Weather on mobile